Terminal Aerodrome Forecast
Issued by NWS

Home | Current Version | Previous Version | Text Only | Print | Product List | Glossary On
Versions: 1 2 3 4 5 6 7 8 9 10 11 12 13 14 15 16 17 18
000
FTUS41 KGYX 311100
TAFPSM
TAF
KPSM 311122Z 3112/0112 22004KT P6SM SCT250
     FM311800 17010KT P6SM VCSH SCT050 BKN100
     FM010500 21005KT 6SM BR FEW002 SCT250=

USA.gov is the U.S. government's official web portal to all federal, state and local government web resources and services.